PRIVATE WETTERSTATION BILLIGHEIM-ALLFELD                       ZURCK
Wetterdaten: Samstag, 05.11.2016
Datum Zeit Temp. A. Temp. A. min Temp. A. max Feuchte A. Luftdruck Regen Wind Richtung Richtung Sonnenschein ET Solar Taupunkt Windchill Windben Empfang
05.11.2016 00:00 3,6 C 3,6 C 3,7 C 91 % 1008,7 hPa 0,0 l/m 0,0 km/h (0 Bft) N 0 0 min 0,000 mm 0 W/m 2,3 C 3,6 C 0,0 km/h (0 Bft) 100 %
05.11.2016 00:10 3,4 C 3,4 C 3,6 C 91 % 1008,6 hPa 0,0 l/m 1,6 km/h (1 Bft) W 270 0 min 0,000 mm 0 W/m 2,1 C 3,4 C 6,4 km/h (2 Bft) 100 %
05.11.2016 00:20 3,3 C 3,3 C 3,4 C 91 % 1008,4 hPa 0,0 l/m 0,0 km/h (0 Bft) N 0 0 min 0,000 mm 0 W/m 2,0 C 3,3 C 0,0 km/h (0 Bft) 100 %
05.11.2016 00:30 3,3 C 3,3 C 3,3 C 91 % 1008,2 hPa 0,0 l/m 0,0 km/h (0 Bft) N 0 0 min 0,000 mm 0 W/m 2,0 C 3,3 C 0,0 km/h (0 Bft) 100 %
05.11.2016 00:40 3,2 C 3,2 C 3,3 C 91 % 1008,4 hPa 0,0 l/m 0,0 km/h (0 Bft) N 0 0 min 0,000 mm 0 W/m 1,9 C 3,2 C 0,0 km/h (0 Bft) 100 %
05.11.2016 00:50 3,2 C 3,2 C 3,2 C 91 % 1008,3 hPa 0,0 l/m 0,0 km/h (0 Bft) N 0 0 min 0,000 mm 0 W/m 1,9 C 3,2 C 0,0 km/h (0 Bft) 91 %
05.11.2016 01:00 3,2 C 3,2 C 3,2 C 91 % 1008,2 hPa 0,0 l/m 0,0 km/h (0 Bft) N 0 0 min 0,000 mm 0 W/m 1,9 C 3,2 C 0,0 km/h (0 Bft) 99 %
05.11.2016 01:10 3,3 C 3,2 C 3,3 C 91 % 1008,0 hPa 0,0 l/m 0,0 km/h (0 Bft) W-NW 292 0 min 0,000 mm 0 W/m 2,0 C 3,3 C 1,6 km/h (1 Bft) 100 %
05.11.2016 01:20 3,3 C 3,3 C 3,3 C 91 % 1007,9 hPa 0,0 l/m 0,0 km/h (0 Bft) N 0 0 min 0,000 mm 0 W/m 2,0 C 3,3 C 0,0 km/h (0 Bft) 100 %
05.11.2016 01:30 3,3 C 3,3 C 3,3 C 91 % 1007,8 hPa 0,0 l/m 0,0 km/h (0 Bft) W-NW 292 0 min 0,000 mm 0 W/m 2,0 C 3,3 C 3,2 km/h (1 Bft) 100 %
05.11.2016 01:40 3,3 C 3,3 C 3,3 C 91 % 1007,8 hPa 0,0 l/m 0,0 km/h (0 Bft) W-NW 292 0 min 0,000 mm 0 W/m 2,0 C 3,3 C 3,2 km/h (1 Bft) 100 %
05.11.2016 01:50 3,4 C 3,3 C 3,4 C 91 % 1007,6 hPa 0,0 l/m 0,0 km/h (0 Bft) N 0 0 min 0,000 mm 0 W/m 2,1 C 3,4 C 0,0 km/h (0 Bft) 100 %
05.11.2016 02:00 3,5 C 3,4 C 3,5 C 92 % 1007,5 hPa 0,0 l/m 0,0 km/h (0 Bft) N 0 0 min 0,000 mm 0 W/m 2,3 C 3,5 C 0,0 km/h (0 Bft) 100 %
05.11.2016 02:10 3,7 C 3,5 C 3,7 C 91 % 1007,4 hPa 0,0 l/m 0,0 km/h (0 Bft) N 0 0 min 0,000 mm 0 W/m 2,4 C 3,7 C 0,0 km/h (0 Bft) 100 %
05.11.2016 02:20 3,8 C 3,6 C 3,8 C 92 % 1007,4 hPa 0,0 l/m 0,0 km/h (0 Bft) N 0 0 min 0,000 mm 0 W/m 2,6 C 3,8 C 0,0 km/h (0 Bft) 100 %
05.11.2016 02:30 3,9 C 3,8 C 3,9 C 92 % 1007,3 hPa 0,0 l/m 0,0 km/h (0 Bft) N 0 0 min 0,000 mm 0 W/m 2,7 C 3,9 C 0,0 km/h (0 Bft) 100 %
05.11.2016 02:40 4,0 C 3,9 C 4,0 C 91 % 1007,2 hPa 0,0 l/m 0,0 km/h (0 Bft) W-NW 292 0 min 0,000 mm 0 W/m 2,7 C 4,0 C 1,6 km/h (1 Bft) 100 %
05.11.2016 02:50 4,1 C 4,0 C 4,1 C 91 % 1007,1 hPa 0,2 l/m 0,0 km/h (0 Bft) W-NW 292 0 min 0,000 mm 0 W/m 2,8 C 4,1 C 1,6 km/h (1 Bft) 100 %
05.11.2016 03:00 4,1 C 4,0 C 4,1 C 91 % 1007,1 hPa 0,2 l/m 0,0 km/h (0 Bft) N 0 0 min 0,000 mm 0 W/m 2,8 C 4,1 C 0,0 km/h (0 Bft) 99 %
05.11.2016 03:10 4,4 C 4,1 C 4,4 C 91 % 1006,8 hPa 0,4 l/m 0,0 km/h (0 Bft) N 0 0 min 0,000 mm 0 W/m 3,1 C 4,4 C 0,0 km/h (0 Bft) 100 %
05.11.2016 03:20 5,2 C 4,5 C 5,2 C 91 % 1006,6 hPa 0,2 l/m 1,6 km/h (1 Bft) W 270 0 min 0,000 mm 0 W/m 3,9 C 5,2 C 6,4 km/h (2 Bft) 99 %
05.11.2016 03:30 5,4 C 5,2 C 5,4 C 91 % 1006,6 hPa 0,2 l/m 4,8 km/h (1 Bft) SO 135 0 min 0,000 mm 0 W/m 4,1 C 5,4 C 9,7 km/h (2 Bft) 100 %
05.11.2016 03:40 5,3 C 5,3 C 5,5 C 92 % 1006,5 hPa 0,2 l/m 3,2 km/h (1 Bft) S-SO 157 0 min 0,000 mm 0 W/m 4,1 C 5,3 C 8,0 km/h (2 Bft) 100 %
05.11.2016 03:50 5,4 C 5,3 C 5,4 C 92 % 1006,5 hPa 0,2 l/m 1,6 km/h (1 Bft) S-SO 157 0 min 0,000 mm 0 W/m 4,2 C 5,4 C 4,8 km/h (1 Bft) 100 %
05.11.2016 04:00 5,2 C 5,2 C 5,4 C 91 % 1006,4 hPa 0,0 l/m 0,0 km/h (0 Bft) S-SO 157 0 min 0,000 mm 0 W/m 3,9 C 5,2 C 4,8 km/h (1 Bft) 100 %
05.11.2016 04:10 5,3 C 5,2 C 5,3 C 92 % 1006,2 hPa 0,2 l/m 3,2 km/h (1 Bft) S-SO 157 0 min 0,000 mm 0 W/m 4,1 C 5,3 C 6,4 km/h (2 Bft) 100 %
05.11.2016 04:20 5,4 C 5,3 C 5,4 C 91 % 1005,9 hPa 0,0 l/m 3,2 km/h (1 Bft) SO 135 0 min 0,000 mm 0 W/m 4,1 C 5,4 C 8,0 km/h (2 Bft) 100 %
05.11.2016 04:30 5,9 C 5,4 C 5,9 C 91 % 1005,8 hPa 0,0 l/m 4,8 km/h (1 Bft) S-SO 157 0 min 0,000 mm 0 W/m 4,5 C 5,9 C 9,7 km/h (2 Bft) 99 %
05.11.2016 04:40 6,0 C 5,9 C 6,0 C 92 % 1005,9 hPa 0,0 l/m 3,2 km/h (1 Bft) S-SO 157 0 min 0,000 mm 0 W/m 4,8 C 6,0 C 8,0 km/h (2 Bft) 100 %
05.11.2016 04:50 6,1 C 6,0 C 6,1 C 92 % 1005,6 hPa 0,0 l/m 4,8 km/h (1 Bft) S-SO 157 0 min 0,000 mm 0 W/m 4,9 C 6,1 C 8,0 km/h (2 Bft) 100 %
05.11.2016 05:00 6,1 C 6,1 C 6,2 C 91 % 1005,4 hPa 0,0 l/m 3,2 km/h (1 Bft) SO 135 0 min 0,000 mm 0 W/m 4,7 C 6,1 C 9,7 km/h (2 Bft) 100 %
05.11.2016 05:10 6,1 C 6,1 C 6,2 C 91 % 1005,3 hPa 0,0 l/m 3,2 km/h (1 Bft) S-SO 157 0 min 0,000 mm 0 W/m 4,7 C 6,1 C 8,0 km/h (2 Bft) 100 %
05.11.2016 05:20 6,0 C 6,0 C 6,2 C 92 % 1005,3 hPa 0,2 l/m 3,2 km/h (1 Bft) S-SO 157 0 min 0,000 mm 0 W/m 4,8 C 6,0 C 6,4 km/h (2 Bft) 100 %
05.11.2016 05:30 5,9 C 5,9 C 6,1 C 91 % 1005,3 hPa 0,0 l/m 0,0 km/h (0 Bft) N 0 0 min 0,000 mm 0 W/m 4,5 C 5,9 C 0,0 km/h (0 Bft) 100 %
05.11.2016 05:40 5,7 C 5,7 C 5,9 C 92 % 1005,2 hPa 0,0 l/m 0,0 km/h (0 Bft) S-SO 157 0 min 0,000 mm 0 W/m 4,5 C 5,7 C 3,2 km/h (1 Bft) 100 %
05.11.2016 05:50 5,7 C 5,7 C 5,7 C 92 % 1004,9 hPa 0,0 l/m 1,6 km/h (1 Bft) S-SO 157 0 min 0,000 mm 0 W/m 4,5 C 5,7 C 4,8 km/h (1 Bft) 100 %
05.11.2016 06:00 5,8 C 5,7 C 5,8 C 92 % 1004,8 hPa 0,0 l/m 0,0 km/h (0 Bft) S-SO 157 0 min 0,000 mm 0 W/m 4,6 C 5,8 C 4,8 km/h (1 Bft) 100 %
05.11.2016 06:10 5,8 C 5,8 C 5,8 C 91 % 1004,8 hPa 0,0 l/m 0,0 km/h (0 Bft) N 0 0 min 0,000 mm 0 W/m 4,4 C 5,8 C 0,0 km/h (0 Bft) 100 %
05.11.2016 06:20 5,8 C 5,8 C 5,9 C 91 % 1004,6 hPa 0,0 l/m 0,0 km/h (0 Bft) N 0 0 min 0,000 mm 0 W/m 4,4 C 5,8 C 0,0 km/h (0 Bft) 100 %
05.11.2016 06:30 5,9 C 5,8 C 5,9 C 91 % 1004,4 hPa 0,0 l/m 0,0 km/h (0 Bft) N 0 0 min 0,000 mm 0 W/m 4,5 C 5,9 C 0,0 km/h (0 Bft) 100 %
05.11.2016 06:40 5,9 C 5,9 C 5,9 C 91 % 1004,3 hPa 0,0 l/m 0,0 km/h (0 Bft) N 0 0 min 0,000 mm 0 W/m 4,5 C 5,9 C 0,0 km/h (0 Bft) 100 %
05.11.2016 06:50 5,9 C 5,9 C 5,9 C 91 % 1004,4 hPa 0,0 l/m 0,0 km/h (0 Bft) N 0 0 min 0,000 mm 0 W/m 4,5 C 5,9 C 0,0 km/h (0 Bft) 89 %
05.11.2016 07:00 5,9 C 5,9 C 5,9 C 91 % 1004,2 hPa 0,0 l/m 0,0 km/h (0 Bft) N 0 0 min 0,000 mm 0 W/m 4,5 C 5,9 C 0,0 km/h (0 Bft) 100 %
05.11.2016 07:10 5,9 C 5,9 C 5,9 C 92 % 1003,9 hPa 0,0 l/m 0,0 km/h (0 Bft) N 0 0 min 0,000 mm 0 W/m 4,7 C 5,9 C 0,0 km/h (0 Bft) 100 %
05.11.2016 07:20 6,0 C 5,9 C 6,0 C 91 % 1003,9 hPa 0,0 l/m 0,0 km/h (0 Bft) N 0 0 min 0,000 mm 0 W/m 4,6 C 6,0 C 0,0 km/h (0 Bft) 100 %
05.11.2016 07:30 6,1 C 6,0 C 6,1 C 91 % 1003,8 hPa 0,0 l/m 0,0 km/h (0 Bft) N 0 0 min 0,000 mm 0 W/m 4,7 C 6,1 C 0,0 km/h (0 Bft) 100 %
05.11.2016 07:40 6,1 C 6,1 C 6,1 C 91 % 1003,7 hPa 0,0 l/m 0,0 km/h (0 Bft) N 0 0 min 0,000 mm 0 W/m 4,7 C 6,1 C 0,0 km/h (0 Bft) 100 %
05.11.2016 07:50 6,2 C 6,1 C 6,2 C 91 % 1003,4 hPa 0,0 l/m 0,0 km/h (0 Bft) N 0 0 min 0,000 mm 0 W/m 4,8 C 6,2 C 0,0 km/h (0 Bft) 100 %
05.11.2016 08:00 6,2 C 6,2 C 6,2 C 91 % 1003,4 hPa 0,0 l/m 1,6 km/h (1 Bft) SW 225 0 min 0,000 mm 0 W/m 4,8 C 6,2 C 4,8 km/h (1 Bft) 100 %
05.11.2016 08:10 6,2 C 6,2 C 6,2 C 91 % 1003,6 hPa 0,0 l/m 4,8 km/h (1 Bft) NW 315 0 min 0,000 mm 0 W/m 4,8 C 6,2 C 14,5 km/h (3 Bft) 100 %
05.11.2016 08:20 6,2 C 6,2 C 6,2 C 91 % 1003,3 hPa 0,0 l/m 0,0 km/h (0 Bft) N-NW 337 0 min 0,000 mm 0 W/m 4,8 C 6,2 C 4,8 km/h (1 Bft) 100 %
05.11.2016 08:30 6,3 C 6,2 C 6,3 C 91 % 1003,0 hPa 0,0 l/m 0,0 km/h (0 Bft) N 0 0 min 0,000 mm 5 W/m 4,9 C 6,3 C 0,0 km/h (0 Bft) 100 %
05.11.2016 08:40 6,4 C 6,3 C 6,4 C 91 % 1002,8 hPa 0,0 l/m 0,0 km/h (0 Bft) N 0 0 min 0,000 mm 14 W/m 5,0 C 6,4 C 0,0 km/h (0 Bft) 100 %
05.11.2016 08:50 6,6 C 6,4 C 6,6 C 91 % 1002,6 hPa 0,0 l/m 0,0 km/h (0 Bft) N 0 0 min 0,000 mm 11 W/m 5,2 C 6,6 C 0,0 km/h (0 Bft) 100 %
05.11.2016 09:00 7,0 C 6,6 C 7,0 C 91 % 1002,6 hPa 0,0 l/m 1,6 km/h (1 Bft) N 360 0 min 0,000 mm 11 W/m 5,6 C 7,0 C 4,8 km/h (1 Bft) 100 %
05.11.2016 09:10 7,2 C 7,0 C 7,3 C 91 % 1002,5 hPa 0,0 l/m 0,0 km/h (0 Bft) N-NO 22 0 min 0,000 mm 16 W/m 5,8 C 7,2 C 4,8 km/h (1 Bft) 100 %
05.11.2016 09:20 7,2 C 7,2 C 7,3 C 91 % 1002,1 hPa 0,0 l/m 0,0 km/h (0 Bft) N 0 0 min 0,000 mm 18 W/m 5,8 C 7,2 C 0,0 km/h (0 Bft) 100 %
05.11.2016 09:30 7,0 C 7,0 C 7,2 C 91 % 1002,2 hPa 0,2 l/m 0,0 km/h (0 Bft) N 0 0 min 0,000 mm 16 W/m 5,6 C 7,0 C 0,0 km/h (0 Bft) 100 %
05.11.2016 09:40 6,9 C 6,9 C 7,0 C 91 % 1002,0 hPa 0,0 l/m 0,0 km/h (0 Bft) N 0 0 min 0,000 mm 25 W/m 5,5 C 6,9 C 0,0 km/h (0 Bft) 100 %
05.11.2016 09:50 6,9 C 6,9 C 6,9 C 91 % 1001,7 hPa 0,2 l/m 0,0 km/h (0 Bft) N 0 0 min 0,000 mm 30 W/m 5,5 C 6,9 C 0,0 km/h (0 Bft) 100 %
05.11.2016 10:00 7,0 C 6,9 C 7,1 C 91 % 1001,3 hPa 0,0 l/m 0,0 km/h (0 Bft) N 0 0 min 0,000 mm 42 W/m 5,6 C 7,0 C 0,0 km/h (0 Bft) 100 %
05.11.2016 10:10 7,2 C 7,1 C 7,2 C 91 % 1001,2 hPa 0,0 l/m 0,0 km/h (0 Bft) N 0 0 min 0,000 mm 33 W/m 5,8 C 7,2 C 0,0 km/h (0 Bft) 100 %
05.11.2016 10:20 7,3 C 7,2 C 7,3 C 91 % 1001,0 hPa 0,2 l/m 0,0 km/h (0 Bft) N 0 0 min 0,000 mm 23 W/m 5,9 C 7,3 C 0,0 km/h (0 Bft) 100 %
05.11.2016 10:30 7,4 C 7,3 C 7,4 C 91 % 1000,9 hPa 0,0 l/m 0,0 km/h (0 Bft) N 0 0 min 0,000 mm 16 W/m 6,0 C 7,4 C 0,0 km/h (0 Bft) 100 %
05.11.2016 10:40 7,4 C 7,3 C 7,4 C 91 % 1000,7 hPa 0,0 l/m 0,0 km/h (0 Bft) N 0 0 min 0,000 mm 23 W/m 6,0 C 7,4 C 0,0 km/h (0 Bft) 100 %
05.11.2016 10:50 7,5 C 7,4 C 7,5 C 91 % 1000,4 hPa 0,0 l/m 0,0 km/h (0 Bft) N 0 0 min 0,000 mm 28 W/m 6,1 C 7,5 C 0,0 km/h (0 Bft) 100 %
05.11.2016 11:00 7,7 C 7,5 C 7,7 C 91 % 1000,3 hPa 0,2 l/m 0,0 km/h (0 Bft) N 0 0 min 0,000 mm 39 W/m 6,3 C 7,7 C 0,0 km/h (0 Bft) 100 %
05.11.2016 11:10 7,9 C 7,7 C 7,9 C 91 % 1000,1 hPa 0,0 l/m 0,0 km/h (0 Bft) N 0 0 min 0,000 mm 51 W/m 6,5 C 7,9 C 0,0 km/h (0 Bft) 100 %
05.11.2016 11:20 8,0 C 7,9 C 8,0 C 91 % 999,8 hPa 0,2 l/m 0,0 km/h (0 Bft) N 0 0 min 0,000 mm 54 W/m 6,6 C 8,0 C 0,0 km/h (0 Bft) 100 %
05.11.2016 11:30 8,2 C 8,0 C 8,2 C 91 % 999,5 hPa 0,0 l/m 0,0 km/h (0 Bft) N 0 0 min 0,000 mm 60 W/m 6,8 C 8,2 C 0,0 km/h (0 Bft) 100 %
05.11.2016 11:40 8,3 C 8,2 C 8,3 C 91 % 999,3 hPa 0,2 l/m 0,0 km/h (0 Bft) N 0 0 min 0,000 mm 58 W/m 6,9 C 8,3 C 0,0 km/h (0 Bft) 100 %
05.11.2016 11:50 8,4 C 8,3 C 8,4 C 91 % 999,5 hPa 0,2 l/m 0,0 km/h (0 Bft) N-NO 22 0 min 0,000 mm 26 W/m 7,0 C 8,4 C 1,6 km/h (1 Bft) 100 %
05.11.2016 12:00 8,4 C 8,4 C 8,4 C 91 % 999,7 hPa 0,8 l/m 1,6 km/h (1 Bft) N-NO 22 0 min 0,025 mm 23 W/m 7,0 C 8,4 C 3,2 km/h (1 Bft) 100 %
05.11.2016 12:10 8,3 C 8,3 C 8,4 C 91 % 999,5 hPa 0,6 l/m 0,0 km/h (0 Bft) N-NO 22 0 min 0,000 mm 30 W/m 6,9 C 8,3 C 1,6 km/h (1 Bft) 100 %
05.11.2016 12:20 8,3 C 8,3 C 8,3 C 91 % 999,4 hPa 0,2 l/m 1,6 km/h (1 Bft) N-NO 22 0 min 0,000 mm 37 W/m 6,9 C 8,3 C 4,8 km/h (1 Bft) 100 %
05.11.2016 12:30 8,3 C 8,3 C 8,4 C 91 % 999,4 hPa 0,4 l/m 4,8 km/h (1 Bft) NW 315 0 min 0,000 mm 32 W/m 6,9 C 8,3 C 11,3 km/h (2 Bft) 100 %
05.11.2016 12:40 8,2 C 8,2 C 8,3 C 91 % 999,5 hPa 0,2 l/m 6,4 km/h (2 Bft) NW 315 0 min 0,000 mm 18 W/m 6,8 C 8,2 C 17,7 km/h (3 Bft) 100 %
05.11.2016 12:50 8,1 C 8,1 C 8,2 C 91 % 999,4 hPa 0,4 l/m 1,6 km/h (1 Bft) N-NW 337 0 min 0,000 mm 33 W/m 6,7 C 8,1 C 6,4 km/h (2 Bft) 100 %
05.11.2016 13:00 8,1 C 8,1 C 8,1 C 91 % 999,1 hPa 0,4 l/m 0,0 km/h (0 Bft) N 0 0 min 0,025 mm 54 W/m 6,7 C 8,1 C 0,0 km/h (0 Bft) 100 %
05.11.2016 13:10 8,2 C 8,1 C 8,2 C 91 % 999,3 hPa 0,2 l/m 0,0 km/h (0 Bft) N-NW 337 0 min 0,000 mm 49 W/m 6,8 C 8,2 C 8,0 km/h (2 Bft) 100 %
05.11.2016 13:20 8,2 C 8,2 C 8,3 C 91 % 999,5 hPa 0,4 l/m 4,8 km/h (1 Bft) N-NW 337 0 min 0,000 mm 25 W/m 6,8 C 8,2 C 11,3 km/h (2 Bft) 100 %
05.11.2016 13:30 8,2 C 8,2 C 8,3 C 91 % 999,4 hPa 0,0 l/m 3,2 km/h (1 Bft) N-NW 337 0 min 0,000 mm 37 W/m 6,8 C 8,2 C 8,0 km/h (2 Bft) 100 %
05.11.2016 13:40 8,2 C 8,2 C 8,2 C 91 % 999,4 hPa 0,0 l/m 0,0 km/h (0 Bft) N-NW 337 0 min 0,000 mm 53 W/m 6,8 C 8,2 C 6,4 km/h (2 Bft) 100 %
05.11.2016 13:50 8,2 C 8,2 C 8,2 C 91 % 999,3 hPa 0,0 l/m 1,6 km/h (1 Bft) N-NW 337 0 min 0,000 mm 42 W/m 6,8 C 8,2 C 4,8 km/h (1 Bft) 100 %
05.11.2016 14:00 8,2 C 8,2 C 8,3 C 91 % 999,2 hPa 0,0 l/m 1,6 km/h (1 Bft) N-NW 337 0 min 0,025 mm 56 W/m 6,8 C 8,2 C 6,4 km/h (2 Bft) 100 %
05.11.2016 14:10 8,3 C 8,2 C 8,3 C 91 % 999,3 hPa 0,0 l/m 1,6 km/h (1 Bft) N-NW 337 0 min 0,000 mm 81 W/m 6,9 C 8,3 C 4,8 km/h (1 Bft) 99 %
05.11.2016 14:20 8,4 C 8,3 C 8,4 C 91 % 999,1 hPa 0,0 l/m 1,6 km/h (1 Bft) N-NW 337 0 min 0,000 mm 58 W/m 7,0 C 8,4 C 4,8 km/h (1 Bft) 100 %
05.11.2016 14:30 8,4 C 8,4 C 8,4 C 91 % 999,2 hPa 0,0 l/m 1,6 km/h (1 Bft) N-NW 337 0 min 0,000 mm 65 W/m 7,0 C 8,4 C 4,8 km/h (1 Bft) 99 %
05.11.2016 14:40 8,5 C 8,4 C 8,5 C 91 % 999,2 hPa 0,0 l/m 1,6 km/h (1 Bft) N-NW 337 0 min 0,000 mm 77 W/m 7,1 C 8,5 C 6,4 km/h (2 Bft) 99 %
05.11.2016 14:50 8,3 C 8,3 C 8,5 C 91 % 999,3 hPa 0,0 l/m 4,8 km/h (1 Bft) NW 315 0 min 0,000 mm 54 W/m 6,9 C 8,3 C 11,3 km/h (2 Bft) 99 %
05.11.2016 15:00 8,0 C 8,0 C 8,5 C 91 % 999,2 hPa 0,0 l/m 0,3 km/h (0 Bft) N-NW 328 0 min 0,027 mm 19 W/m 6,6 C 8,0 C 1,6 km/h (1 Bft) 100 %
05.11.2016 15:10 7,8 C 7,8 C 8,0 C 92 % 999,2 hPa 0,2 l/m 0,0 km/h (0 Bft) N-NW 328 0 min 0,000 mm 19 W/m 6,6 C 7,8 C 0,0 km/h (0 Bft) 100 %
05.11.2016 15:20 7,8 C 7,8 C 7,8 C 92 % 999,3 hPa 0,0 l/m 0,0 km/h (0 Bft) N-NW 328 0 min 0,000 mm 32 W/m 6,6 C 7,8 C 0,0 km/h (0 Bft) 100 %
05.11.2016 15:30 7,9 C 7,8 C 7,9 C 91 % 999,2 hPa 0,0 l/m 0,0 km/h (0 Bft) N-NW 328 0 min 0,000 mm 37 W/m 6,5 C 7,9 C 0,0 km/h (0 Bft) 100 %
05.11.2016 15:40 7,9 C 7,9 C 7,9 C 91 % 999,6 hPa 0,2 l/m 0,6 km/h (0 Bft) W-NW 288 0 min 0,000 mm 19 W/m 6,5 C 7,9 C 6,4 km/h (2 Bft) 100 %
05.11.2016 15:50 7,8 C 7,8 C 7,9 C 91 % 999,7 hPa 0,0 l/m 6,3 km/h (2 Bft) NW 306 0 min 0,000 mm 21 W/m 6,4 C 7,8 C 14,5 km/h (3 Bft) 100 %
05.11.2016 16:00 7,7 C 7,7 C 7,8 C 91 % 999,7 hPa 0,0 l/m 1,3 km/h (1 Bft) NW 309 0 min 0,000 mm 23 W/m 6,3 C 7,7 C 8,0 km/h (2 Bft) 100 %
05.11.2016 16:10 7,5 C 7,5 C 7,7 C 92 % 999,7 hPa 0,0 l/m 4,2 km/h (1 Bft) W-NW 300 0 min 0,000 mm 14 W/m 6,3 C 7,5 C 9,7 km/h (2 Bft) 100 %
05.11.2016 16:20 7,4 C 7,4 C 7,5 C 91 % 999,8 hPa 0,0 l/m 2,0 km/h (1 Bft) W-NW 300 0 min 0,000 mm 9 W/m 6,0 C 7,4 C 6,4 km/h (2 Bft) 91 %
05.11.2016 16:30 7,4 C 7,4 C 7,4 C 91 % 999,8 hPa 0,0 l/m 1,0 km/h (0 Bft) NW 309 0 min 0,000 mm 9 W/m 6,0 C 7,4 C 8,0 km/h (2 Bft) 100 %
05.11.2016 16:40 7,3 C 7,3 C 7,4 C 91 % 999,9 hPa 0,0 l/m 0,9 km/h (0 Bft) NW 309 0 min 0,000 mm 0 W/m 5,9 C 7,3 C 6,4 km/h (2 Bft) 100 %
05.11.2016 16:50 7,3 C 7,3 C 7,3 C 92 % 999,8 hPa 0,0 l/m 0,0 km/h (0 Bft) NW 309 0 min 0,000 mm 0 W/m 6,1 C 7,3 C 0,0 km/h (0 Bft) 100 %
05.11.2016 17:00 7,2 C 7,2 C 7,3 C 92 % 999,7 hPa 0,0 l/m 0,0 km/h (0 Bft) W-NW 300 0 min 0,000 mm 0 W/m 6,0 C 7,2 C 0,0 km/h (0 Bft) 100 %
05.11.2016 17:10 7,1 C 7,1 C 7,2 C 92 % 999,9 hPa 0,0 l/m 0,0 km/h (0 Bft) W-NW 299 0 min 0,000 mm 0 W/m 5,9 C 7,1 C 1,6 km/h (1 Bft) 99 %
05.11.2016 17:20 7,1 C 7,1 C 7,1 C 92 % 1000,1 hPa 0,0 l/m 0,0 km/h (0 Bft) W-NW 298 0 min 0,000 mm 0 W/m 5,9 C 7,1 C 1,6 km/h (1 Bft) 100 %
05.11.2016 17:30 7,0 C 7,0 C 7,1 C 92 % 1000,1 hPa 0,0 l/m 0,0 km/h (0 Bft) W-NW 292 0 min 0,000 mm 0 W/m 5,8 C 7,0 C 1,6 km/h (1 Bft) 91 %
05.11.2016 17:40 7,0 C 6,9 C 7,0 C 92 % 1000,0 hPa 0,0 l/m 0,0 km/h (0 Bft) W-NW 292 0 min 0,000 mm 0 W/m 5,8 C 7,0 C 1,6 km/h (1 Bft) 100 %
05.11.2016 17:50 6,9 C 6,9 C 7,0 C 92 % 1000,1 hPa 0,0 l/m 0,0 km/h (0 Bft) W-NW 286 0 min 0,000 mm 0 W/m 5,7 C 6,9 C 0,0 km/h (0 Bft) 100 %
05.11.2016 18:00 6,9 C 6,9 C 6,9 C 92 % 1000,3 hPa 0,0 l/m 0,0 km/h (0 Bft) W-NW 286 0 min 0,000 mm 0 W/m 5,7 C 6,9 C 1,6 km/h (1 Bft) 100 %
05.11.2016 18:10 6,9 C 6,9 C 6,9 C 92 % 1000,5 hPa 0,0 l/m 0,0 km/h (0 Bft) W-NW 286 0 min 0,000 mm 0 W/m 5,7 C 6,9 C 0,0 km/h (0 Bft) 100 %
05.11.2016 18:20 6,9 C 6,9 C 6,9 C 92 % 1000,6 hPa 0,0 l/m 2,2 km/h (1 Bft) W-NW 282 0 min 0,000 mm 0 W/m 5,7 C 6,9 C 8,0 km/h (2 Bft) 100 %
05.11.2016 18:30 6,9 C 6,9 C 6,9 C 92 % 1000,6 hPa 0,0 l/m 2,8 km/h (1 Bft) W 281 0 min 0,000 mm 0 W/m 5,7 C 6,9 C 6,4 km/h (2 Bft) 100 %
05.11.2016 18:40 6,9 C 6,8 C 6,9 C 92 % 1000,6 hPa 0,0 l/m 2,3 km/h (1 Bft) W 272 0 min 0,000 mm 0 W/m 5,7 C 6,9 C 8,0 km/h (2 Bft) 100 %
05.11.2016 18:50 6,8 C 6,8 C 6,9 C 92 % 1000,5 hPa 0,0 l/m 0,8 km/h (0 Bft) W-NW 296 0 min 0,000 mm 0 W/m 5,6 C 6,8 C 8,0 km/h (2 Bft) 100 %
05.11.2016 19:00 6,8 C 6,8 C 6,8 C 92 % 1000,5 hPa 0,0 l/m 1,1 km/h (1 Bft) W-NW 295 0 min 0,000 mm 0 W/m 5,6 C 6,8 C 4,8 km/h (1 Bft) 100 %
05.11.2016 19:10 6,7 C 6,7 C 6,8 C 92 % 1000,4 hPa 0,0 l/m 0,5 km/h (0 Bft) W-NW 295 0 min 0,000 mm 0 W/m 5,5 C 6,7 C 4,8 km/h (1 Bft) 100 %
05.11.2016 19:20 6,7 C 6,7 C 6,7 C 92 % 1000,7 hPa 0,0 l/m 3,0 km/h (1 Bft) W-NW 295 0 min 0,000 mm 0 W/m 5,5 C 6,7 C 9,7 km/h (2 Bft) 100 %
05.11.2016 19:30 6,7 C 6,7 C 6,7 C 92 % 1000,6 hPa 0,0 l/m 2,8 km/h (1 Bft) W-NW 284 0 min 0,000 mm 0 W/m 5,5 C 6,7 C 8,0 km/h (2 Bft) 100 %
05.11.2016 19:40 6,6 C 6,6 C 6,7 C 92 % 1000,6 hPa 0,0 l/m 1,8 km/h (1 Bft) W 277 0 min 0,000 mm 0 W/m 5,4 C 6,6 C 8,0 km/h (2 Bft) 100 %
05.11.2016 19:50 6,5 C 6,5 C 6,6 C 92 % 1000,8 hPa 0,0 l/m 2,0 km/h (1 Bft) W 273 0 min 0,000 mm 0 W/m 5,3 C 6,5 C 8,0 km/h (2 Bft) 100 %
05.11.2016 20:00 6,4 C 6,4 C 6,5 C 92 % 1000,6 hPa 0,0 l/m 0,2 km/h (0 Bft) W 273 0 min 0,000 mm 0 W/m 5,2 C 6,4 C 4,8 km/h (1 Bft) 100 %
05.11.2016 20:10 6,4 C 6,3 C 6,4 C 92 % 1000,8 hPa 0,0 l/m 0,0 km/h (0 Bft) W 273 0 min 0,000 mm 0 W/m 5,2 C 6,4 C 0,0 km/h (0 Bft) 100 %
05.11.2016 20:20 6,3 C 6,3 C 6,4 C 92 % 1001,0 hPa 0,0 l/m 0,0 km/h (0 Bft) W 272 0 min 0,000 mm 0 W/m 5,1 C 6,3 C 1,6 km/h (1 Bft) 100 %
05.11.2016 20:30 6,2 C 6,2 C 6,3 C 92 % 1000,6 hPa 0,0 l/m 0,0 km/h (0 Bft) W 271 0 min 0,000 mm 0 W/m 5,0 C 6,2 C 0,0 km/h (0 Bft) 100 %
05.11.2016 20:40 6,2 C 6,2 C 6,2 C 92 % 1001,0 hPa 0,0 l/m 0,0 km/h (0 Bft) W 271 0 min 0,000 mm 0 W/m 5,0 C 6,2 C 0,0 km/h (0 Bft) 100 %
05.11.2016 20:50 6,1 C 6,1 C 6,2 C 92 % 1000,8 hPa 0,0 l/m 0,0 km/h (0 Bft) W 271 0 min 0,000 mm 0 W/m 4,9 C 6,1 C 0,0 km/h (0 Bft) 92 %
05.11.2016 21:00 6,1 C 6,1 C 6,1 C 92 % 1001,3 hPa 0,0 l/m 0,0 km/h (0 Bft) W 271 0 min 0,000 mm 0 W/m 4,9 C 6,1 C 0,0 km/h (0 Bft) 99 %
05.11.2016 21:10 6,1 C 6,1 C 6,1 C 92 % 1001,3 hPa 0,0 l/m 0,0 km/h (0 Bft) N 0 0 min 0,000 mm 0 W/m 4,9 C 6,1 C 0,0 km/h (0 Bft) 98 %
05.11.2016 21:20 6,0 C 6,0 C 6,1 C 92 % 1001,4 hPa 0,0 l/m 0,0 km/h (0 Bft) N 0 0 min 0,000 mm 0 W/m 4,8 C 6,0 C 0,0 km/h (0 Bft) 97 %
05.11.2016 21:30 6,0 C 6,0 C 6,0 C 92 % 1001,4 hPa 0,0 l/m 0,0 km/h (0 Bft) N 0 0 min 0,000 mm 0 W/m 4,8 C 6,0 C 0,0 km/h (0 Bft) 98 %
05.11.2016 21:40 6,0 C 6,0 C 6,0 C 92 % 1001,3 hPa 0,0 l/m 0,0 km/h (0 Bft) W 270 0 min 0,000 mm 0 W/m 4,8 C 6,0 C 1,6 km/h (1 Bft) 97 %
05.11.2016 21:50 6,0 C 5,9 C 6,0 C 92 % 1001,3 hPa 0,0 l/m 0,0 km/h (0 Bft) N 0 0 min 0,000 mm 0 W/m 4,8 C 6,0 C 0,0 km/h (0 Bft) 98 %
05.11.2016 22:00 5,9 C 5,9 C 5,9 C 92 % 1001,3 hPa 0,0 l/m 0,0 km/h (0 Bft) N 0 0 min 0,000 mm 0 W/m 4,7 C 5,9 C 0,0 km/h (0 Bft) 97 %
05.11.2016 22:10 5,9 C 5,9 C 5,9 C 92 % 1001,3 hPa 0,0 l/m 0,0 km/h (0 Bft) N 0 0 min 0,000 mm 0 W/m 4,7 C 5,9 C 0,0 km/h (0 Bft) 98 %
05.11.2016 22:20 5,9 C 5,9 C 5,9 C 92 % 1001,3 hPa 0,0 l/m 0,0 km/h (0 Bft) W 270 0 min 0,000 mm 0 W/m 4,7 C 5,9 C 1,6 km/h (1 Bft) 97 %
05.11.2016 22:30 5,9 C 5,9 C 5,9 C 92 % 1001,3 hPa 0,0 l/m 0,0 km/h (0 Bft) N 0 0 min 0,000 mm 0 W/m 4,7 C 5,9 C 0,0 km/h (0 Bft) 97 %
05.11.2016 22:40 5,9 C 5,9 C 5,9 C 92 % 1001,3 hPa 0,0 l/m 0,0 km/h (0 Bft) W 270 0 min 0,000 mm 0 W/m 4,7 C 5,9 C 1,6 km/h (1 Bft) 98 %
05.11.2016 22:50 5,9 C 5,9 C 5,9 C 92 % 1001,3 hPa 0,0 l/m 1,6 km/h (1 Bft) W 270 0 min 0,000 mm 0 W/m 4,7 C 5,9 C 8,0 km/h (2 Bft) 97 %
05.11.2016 23:00 5,9 C 5,9 C 5,9 C 92 % 1001,1 hPa 0,0 l/m 1,6 km/h (1 Bft) W 270 0 min 0,000 mm 0 W/m 4,7 C 5,9 C 6,4 km/h (2 Bft) 98 %
05.11.2016 23:10 5,8 C 5,8 C 5,9 C 92 % 1001,1 hPa 0,0 l/m 0,0 km/h (0 Bft) W 270 0 min 0,000 mm 0 W/m 4,6 C 5,8 C 6,4 km/h (2 Bft) 97 %
05.11.2016 23:20 5,8 C 5,8 C 5,8 C 92 % 1001,3 hPa 0,0 l/m 1,6 km/h (1 Bft) W 270 0 min 0,000 mm 0 W/m 4,6 C 5,8 C 8,0 km/h (2 Bft) 98 %
05.11.2016 23:30 5,8 C 5,7 C 5,8 C 92 % 1001,5 hPa 0,0 l/m 1,6 km/h (1 Bft) W 270 0 min 0,000 mm 0 W/m 4,6 C 5,8 C 6,4 km/h (2 Bft) 98 %
05.11.2016 23:40 5,8 C 5,8 C 5,8 C 92 % 1001,5 hPa 0,0 l/m 0,0 km/h (0 Bft) W 270 0 min 0,000 mm 0 W/m 4,6 C 5,8 C 9,7 km/h (2 Bft) 97 %
05.11.2016 23:50 5,7 C 5,7 C 5,8 C 92 % 1001,5 hPa 0,0 l/m 1,6 km/h (1 Bft) W 270 0 min 0,000 mm 0 W/m 4,5 C 5,7 C 8,0 km/h (2 Bft) 98 %
_ Min-Zeit 00:40 00:40 00:50 00:00 13:00 - 00:00 - - - - - 00:40 00:40 00:00 06:50
Minimum _ 3,2 C 3,2 C 3,2 C 91 % 999,1 hPa - 0,0 km/h (0 Bft) - - - - - 1,9 C 3,2 C 0,0 km/h (0 Bft) 89 %
_ Max-Zeit 14:40 12:00 14:40 02:00 00:00 12:00 12:40 - - 00:00 15:00 14:10 14:40 14:40 12:40 00:10
Maximum _ 8,5 C 8,4 C 8,5 C 92 % 1008,7 hPa 0,8 l/m 6,4 km/h
NW (2 Bft)
- - 0 min 0,027 mm 81 W/m 7,1 C 8,5 C 17,7 km/h
NW (3 Bft)
100 %
Durchschnitt _ 6,3 C 6,3 C 6,4 C 91 % 1002,5 hPa #7,4 l/m 0,9 km/h (0 Bft) W - #0 min. #0,102 mm 33 W/m 5,1 C 6,3 C 3,4 km/h (1 Bft) 99 %
PRIVATE WETTERSTATION BILLIGHEIM-ALLFELD - www.neckar-odenwald-wetter.de - Holger Sonntag